sensor_id;sensor_type;location;lat;lon;timestamp;P1;durP1;ratioP1;P2;durP2;ratioP2
23376;SDS011;14353;46.070;13.222;2024-02-15T00:01:54;4.10;;;3.65;;
23376;SDS011;14353;46.070;13.222;2024-02-15T00:04:20;4.63;;;4.00;;
23376;SDS011;14353;46.070;13.222;2024-02-15T00:06:46;4.57;;;3.92;;
23376;SDS011;14353;46.070;13.222;2024-02-15T00:09:12;4.00;;;3.60;;
23376;SDS011;14353;46.070;13.222;2024-02-15T00:11:38;4.65;;;3.90;;
23376;SDS011;14353;46.070;13.222;2024-02-15T00:14:04;4.20;;;3.80;;
23376;SDS011;14353;46.070;13.222;2024-02-15T00:16:30;4.60;;;4.00;;
23376;SDS011;14353;46.070;13.222;2024-02-15T00:18:56;4.13;;;3.72;;
23376;SDS011;14353;46.070;13.222;2024-02-15T00:21:21;5.40;;;4.10;;
23376;SDS011;14353;46.070;13.222;2024-02-15T00:23:50;4.55;;;3.90;;
23376;SDS011;14353;46.070;13.222;2024-02-15T00:26:20;4.10;;;3.70;;
23376;SDS011;14353;46.070;13.222;2024-02-15T00:28:46;4.70;;;4.03;;
23376;SDS011;14353;46.070;13.222;2024-02-15T00:31:13;4.22;;;3.78;;
23376;SDS011;14353;46.070;13.222;2024-02-15T00:33:38;5.57;;;4.57;;
23376;SDS011;14353;46.070;13.222;2024-02-15T00:36:04;4.63;;;3.95;;
23376;SDS011;14353;46.070;13.222;2024-02-15T00:38:31;4.97;;;4.22;;
23376;SDS011;14353;46.070;13.222;2024-02-15T00:40:57;5.20;;;4.10;;
23376;SDS011;14353;46.070;13.222;2024-02-15T00:43:26;4.70;;;4.05;;
23376;SDS011;14353;46.070;13.222;2024-02-15T00:45:53;5.15;;;4.13;;
23376;SDS011;14353;46.070;13.222;2024-02-15T00:48:18;4.63;;;4.13;;
23376;SDS011;14353;46.070;13.222;2024-02-15T00:50:44;5.38;;;4.10;;
23376;SDS011;14353;46.070;13.222;2024-02-15T00:53:09;4.63;;;4.05;;
23376;SDS011;14353;46.070;13.222;2024-02-15T00:55:35;5.22;;;4.10;;
23376;SDS011;14353;46.070;13.222;2024-02-15T00:58:01;5.50;;;4.60;;
23376;SDS011;14353;46.070;13.222;2024-02-15T01:00:27;4.55;;;4.10;;
23376;SDS011;14353;46.070;13.222;2024-02-15T01:02:53;4.63;;;4.22;;
23376;SDS011;14353;46.070;13.222;2024-02-15T01:05:20;4.78;;;4.15;;
23376;SDS011;14353;46.070;13.222;2024-02-15T01:07:47;4.78;;;4.10;;
23376;SDS011;14353;46.070;13.222;2024-02-15T01:10:14;5.60;;;4.65;;
23376;SDS011;14353;46.070;13.222;2024-02-15T01:12:40;4.78;;;4.13;;
23376;SDS011;14353;46.070;13.222;2024-02-15T01:15:06;4.75;;;4.25;;
23376;SDS011;14353;46.070;13.222;2024-02-15T01:17:32;5.18;;;4.15;;
23376;SDS011;14353;46.070;13.222;2024-02-15T01:19:58;5.05;;;4.22;;
23376;SDS011;14353;46.070;13.222;2024-02-15T01:22:24;5.25;;;4.47;;
23376;SDS011;14353;46.070;13.222;2024-02-15T01:24:52;4.93;;;4.15;;
23376;SDS011;14353;46.070;13.222;2024-02-15T01:27:18;4.38;;;3.90;;
23376;SDS011;14353;46.070;13.222;2024-02-15T01:29:43;4.63;;;4.00;;
23376;SDS011;14353;46.070;13.222;2024-02-15T01:32:09;4.53;;;3.97;;
23376;SDS011;14353;46.070;13.222;2024-02-15T01:34:35;5.32;;;4.57;;
23376;SDS011;14353;46.070;13.222;2024-02-15T01:37:00;4.95;;;4.20;;
23376;SDS011;14353;46.070;13.222;2024-02-15T01:39:26;4.88;;;4.28;;
23376;SDS011;14353;46.070;13.222;2024-02-15T01:41:52;4.70;;;4.07;;
23376;SDS011;14353;46.070;13.222;2024-02-15T01:44:21;5.28;;;4.15;;
23376;SDS011;14353;46.070;13.222;2024-02-15T01:46:50;5.45;;;4.30;;
23376;SDS011;14353;46.070;13.222;2024-02-15T01:49:18;4.22;;;3.83;;
23376;SDS011;14353;46.070;13.222;2024-02-15T01:51:50;4.10;;;3.70;;
23376;SDS011;14353;46.070;13.222;2024-02-15T01:54:18;4.80;;;4.30;;
23376;SDS011;14353;46.070;13.222;2024-02-15T01:56:45;4.25;;;3.85;;
23376;SDS011;14353;46.070;13.222;2024-02-15T01:59:12;4.70;;;4.20;;
23376;SDS011;14353;46.070;13.222;2024-02-15T02:01:40;5.70;;;4.18;;
23376;SDS011;14353;46.070;13.222;2024-02-15T02:04:07;5.68;;;4.65;;
23376;SDS011;14353;46.070;13.222;2024-02-15T02:06:34;4.70;;;4.22;;
23376;SDS011;14353;46.070;13.222;2024-02-15T02:09:02;4.55;;;4.07;;
23376;SDS011;14353;46.070;13.222;2024-02-15T02:11:28;4.90;;;4.40;;
23376;SDS011;14353;46.070;13.222;2024-02-15T02:13:55;5.13;;;3.90;;
23376;SDS011;14353;46.070;13.222;2024-02-15T02:16:27;5.13;;;4.35;;
23376;SDS011;14353;46.070;13.222;2024-02-15T02:18:54;4.50;;;4.00;;
23376;SDS011;14353;46.070;13.222;2024-02-15T02:21:23;4.97;;;4.45;;
23376;SDS011;14353;46.070;13.222;2024-02-15T02:23:57;4.65;;;4.22;;
23376;SDS011;14353;46.070;13.222;2024-02-15T02:26:24;4.32;;;3.88;;
23376;SDS011;14353;46.070;13.222;2024-02-15T02:28:50;3.97;;;3.55;;
23376;SDS011;14353;46.070;13.222;2024-02-15T02:31:20;5.10;;;4.20;;
23376;SDS011;14353;46.070;13.222;2024-02-15T02:33:49;5.18;;;4.47;;
23376;SDS011;14353;46.070;13.222;2024-02-15T02:36:19;4.50;;;4.10;;
23376;SDS011;14353;46.070;13.222;2024-02-15T02:38:44;4.53;;;3.90;;
23376;SDS011;14353;46.070;13.222;2024-02-15T02:41:11;5.82;;;4.25;;
23376;SDS011;14353;46.070;13.222;2024-02-15T02:43:39;4.75;;;4.25;;
23376;SDS011;14353;46.070;13.222;2024-02-15T02:46:05;4.65;;;3.90;;
23376;SDS011;14353;46.070;13.222;2024-02-15T02:48:31;4.57;;;4.03;;
23376;SDS011;14353;46.070;13.222;2024-02-15T02:50:57;4.75;;;4.15;;
23376;SDS011;14353;46.070;13.222;2024-02-15T02:53:23;4.85;;;4.10;;
23376;SDS011;14353;46.070;13.222;2024-02-15T02:55:49;4.60;;;3.95;;
23376;SDS011;14353;46.070;13.222;2024-02-15T02:58:16;5.72;;;4.30;;
23376;SDS011;14353;46.070;13.222;2024-02-15T03:00:42;5.05;;;4.10;;
23376;SDS011;14353;46.070;13.222;2024-02-15T03:03:07;4.97;;;4.47;;
23376;SDS011;14353;46.070;13.222;2024-02-15T03:05:34;4.70;;;4.20;;
23376;SDS011;14353;46.070;13.222;2024-02-15T03:08:00;4.40;;;4.00;;
23376;SDS011;14353;46.070;13.222;2024-02-15T03:10:26;5.03;;;4.15;;
23376;SDS011;14353;46.070;13.222;2024-02-15T03:12:51;4.40;;;4.00;;
23376;SDS011;14353;46.070;13.222;2024-02-15T03:15:17;5.35;;;4.20;;
23376;SDS011;14353;46.070;13.222;2024-02-15T03:17:45;4.38;;;3.83;;
23376;SDS011;14353;46.070;13.222;2024-02-15T03:20:12;4.40;;;4.00;;
23376;SDS011;14353;46.070;13.222;2024-02-15T03:22:50;4.32;;;3.92;;
23376;SDS011;14353;46.070;13.222;2024-02-15T03:25:22;4.57;;;4.18;;
23376;SDS011;14353;46.070;13.222;2024-02-15T03:27:54;4.63;;;4.22;;
23376;SDS011;14353;46.070;13.222;2024-02-15T03:30:25;4.25;;;3.80;;
23376;SDS011;14353;46.070;13.222;2024-02-15T03:32:55;5.35;;;3.88;;
23376;SDS011;14353;46.070;13.222;2024-02-15T03:35:21;4.18;;;3.78;;
23376;SDS011;14353;46.070;13.222;2024-02-15T03:37:48;4.20;;;3.80;;
23376;SDS011;14353;46.070;13.222;2024-02-15T03:40:17;4.93;;;4.18;;
23376;SDS011;14353;46.070;13.222;2024-02-15T03:42:44;4.60;;;3.78;;
23376;SDS011;14353;46.070;13.222;2024-02-15T03:45:09;4.65;;;3.92;;
23376;SDS011;14353;46.070;13.222;2024-02-15T03:47:36;4.40;;;3.92;;
23376;SDS011;14353;46.070;13.222;2024-02-15T03:50:05;4.93;;;4.20;;
23376;SDS011;14353;46.070;13.222;2024-02-15T03:52:33;4.38;;;3.90;;
23376;SDS011;14353;46.070;13.222;2024-02-15T03:54:59;4.00;;;3.60;;
23376;SDS011;14353;46.070;13.222;2024-02-15T03:57:25;4.32;;;3.90;;
23376;SDS011;14353;46.070;13.222;2024-02-15T03:59:51;4.65;;;4.22;;
23376;SDS011;14353;46.070;13.222;2024-02-15T04:02:19;4.90;;;4.40;;
23376;SDS011;14353;46.070;13.222;2024-02-15T04:04:45;5.03;;;4.07;;
23376;SDS011;14353;46.070;13.222;2024-02-15T04:07:14;4.40;;;4.00;;
23376;SDS011;14353;46.070;13.222;2024-02-15T04:09:41;4.65;;;4.03;;
23376;SDS011;14353;46.070;13.222;2024-02-15T04:12:07;4.75;;;4.03;;
23376;SDS011;14353;46.070;13.222;2024-02-15T04:14:33;3.97;;;3.58;;
23376;SDS011;14353;46.070;13.222;2024-02-15T04:17:00;4.15;;;3.60;;
23376;SDS011;14353;46.070;13.222;2024-02-15T04:19:27;4.65;;;4.00;;
23376;SDS011;14353;46.070;13.222;2024-02-15T04:21:53;4.35;;;3.95;;
23376;SDS011;14353;46.070;13.222;2024-02-15T04:24:20;4.15;;;3.75;;
23376;SDS011;14353;46.070;13.222;2024-02-15T04:26:46;4.68;;;3.78;;
23376;SDS011;14353;46.070;13.222;2024-02-15T04:29:13;4.03;;;3.53;;
23376;SDS011;14353;46.070;13.222;2024-02-15T04:31:40;4.25;;;3.80;;
23376;SDS011;14353;46.070;13.222;2024-02-15T04:34:07;4.50;;;4.10;;
23376;SDS011;14353;46.070;13.222;2024-02-15T04:36:36;4.05;;;3.50;;
23376;SDS011;14353;46.070;13.222;2024-02-15T04:39:02;4.22;;;3.83;;
23376;SDS011;14353;46.070;13.222;2024-02-15T04:41:29;4.20;;;3.80;;
23376;SDS011;14353;46.070;13.222;2024-02-15T04:43:54;4.22;;;3.72;;
23376;SDS011;14353;46.070;13.222;2024-02-15T04:46:20;4.10;;;3.70;;
23376;SDS011;14353;46.070;13.222;2024-02-15T04:48:47;4.03;;;3.63;;
23376;SDS011;14353;46.070;13.222;2024-02-15T04:51:16;4.57;;;3.42;;
23376;SDS011;14353;46.070;13.222;2024-02-15T04:53:44;4.13;;;3.70;;
23376;SDS011;14353;46.070;13.222;2024-02-15T04:56:14;4.25;;;3.85;;
23376;SDS011;14353;46.070;13.222;2024-02-15T04:58:41;3.90;;;3.45;;
23376;SDS011;14353;46.070;13.222;2024-02-15T05:01:14;3.55;;;3.20;;
23376;SDS011;14353;46.070;13.222;2024-02-15T05:03:40;3.83;;;3.45;;
23376;SDS011;14353;46.070;13.222;2024-02-15T05:06:07;4.47;;;3.72;;
23376;SDS011;14353;46.070;13.222;2024-02-15T05:08:33;3.92;;;3.53;;
23376;SDS011;14353;46.070;13.222;2024-02-15T05:11:02;4.03;;;3.63;;
23376;SDS011;14353;46.070;13.222;2024-02-15T05:13:29;3.95;;;3.53;;
23376;SDS011;14353;46.070;13.222;2024-02-15T05:15:55;4.05;;;3.65;;
23376;SDS011;14353;46.070;13.222;2024-02-15T05:18:20;4.68;;;3.85;;
23376;SDS011;14353;46.070;13.222;2024-02-15T05:20:46;3.95;;;3.55;;
23376;SDS011;14353;46.070;13.222;2024-02-15T05:23:12;3.75;;;3.30;;
23376;SDS011;14353;46.070;13.222;2024-02-15T05:25:37;3.80;;;3.50;;
23376;SDS011;14353;46.070;13.222;2024-02-15T05:28:03;4.28;;;3.75;;
23376;SDS011;14353;46.070;13.222;2024-02-15T05:30:31;3.70;;;3.40;;
23376;SDS011;14353;46.070;13.222;2024-02-15T05:32:57;4.00;;;3.60;;
23376;SDS011;14353;46.070;13.222;2024-02-15T05:35:23;3.90;;;3.50;;
23376;SDS011;14353;46.070;13.222;2024-02-15T05:37:49;3.88;;;3.47;;
23376;SDS011;14353;46.070;13.222;2024-02-15T05:40:17;3.35;;;3.00;;
23376;SDS011;14353;46.070;13.222;2024-02-15T05:42:44;4.05;;;3.65;;
23376;SDS011;14353;46.070;13.222;2024-02-15T05:47:49;3.90;;;3.50;;
23376;SDS011;14353;46.070;13.222;2024-02-15T05:50:16;3.92;;;3.53;;
23376;SDS011;14353;46.070;13.222;2024-02-15T05:52:45;4.05;;;3.65;;
23376;SDS011;14353;46.070;13.222;2024-02-15T05:55:11;4.18;;;3.50;;
23376;SDS011;14353;46.070;13.222;2024-02-15T05:57:42;3.80;;;3.20;;
23376;SDS011;14353;46.070;13.222;2024-02-15T06:00:08;4.22;;;3.45;;
23376;SDS011;14353;46.070;13.222;2024-02-15T06:02:35;3.90;;;3.50;;
23376;SDS011;14353;46.070;13.222;2024-02-15T06:05:00;3.70;;;3.40;;
23376;SDS011;14353;46.070;13.222;2024-02-15T06:07:29;3.97;;;3.58;;
23376;SDS011;14353;46.070;13.222;2024-02-15T06:09:57;3.70;;;3.40;;
23376;SDS011;14353;46.070;13.222;2024-02-15T06:12:23;3.75;;;3.20;;
23376;SDS011;14353;46.070;13.222;2024-02-15T06:14:48;4.03;;;3.50;;
23376;SDS011;14353;46.070;13.222;2024-02-15T06:17:14;4.10;;;3.50;;
23376;SDS011;14353;46.070;13.222;2024-02-15T06:19:40;3.70;;;3.30;;
23376;SDS011;14353;46.070;13.222;2024-02-15T06:22:06;3.53;;;3.22;;
23376;SDS011;14353;46.070;13.222;2024-02-15T06:24:33;3.53;;;3.22;;
23376;SDS011;14353;46.070;13.222;2024-02-15T06:27:02;3.90;;;3.50;;
23376;SDS011;14353;46.070;13.222;2024-02-15T06:29:27;3.58;;;3.28;;
23376;SDS011;14353;46.070;13.222;2024-02-15T06:32:11;4.35;;;3.45;;
23376;SDS011;14353;46.070;13.222;2024-02-15T06:34:55;3.40;;;3.10;;
23376;SDS011;14353;46.070;13.222;2024-02-15T06:37:40;3.70;;;3.40;;
23376;SDS011;14353;46.070;13.222;2024-02-15T06:40:24;3.83;;;3.42;;
23376;SDS011;14353;46.070;13.222;2024-02-15T06:42:50;4.07;;;3.45;;
23376;SDS011;14353;46.070;13.222;2024-02-15T06:45:16;3.17;;;2.88;;
23376;SDS011;14353;46.070;13.222;2024-02-15T06:47:43;3.30;;;3.00;;
23376;SDS011;14353;46.070;13.222;2024-02-15T06:50:12;4.03;;;3.10;;
23376;SDS011;14353;46.070;13.222;2024-02-15T06:52:39;3.33;;;3.00;;
23376;SDS011;14353;46.070;13.222;2024-02-15T06:55:08;3.45;;;3.15;;
23376;SDS011;14353;46.070;13.222;2024-02-15T06:57:37;3.70;;;3.33;;
23376;SDS011;14353;46.070;13.222;2024-02-15T07:00:05;3.42;;;3.03;;
23376;SDS011;14353;46.070;13.222;2024-02-15T07:02:39;3.28;;;2.97;;
23376;SDS011;14353;46.070;13.222;2024-02-15T07:05:05;5.63;;;3.33;;
23376;SDS011;14353;46.070;13.222;2024-02-15T07:07:32;7.03;;;3.70;;
23376;SDS011;14353;46.070;13.222;2024-02-15T07:09:59;7.40;;;3.60;;
23376;SDS011;14353;46.070;13.222;2024-02-15T07:12:33;9.07;;;3.58;;
23376;SDS011;14353;46.070;13.222;2024-02-15T07:14:59;10.52;;;3.65;;
23376;SDS011;14353;46.070;13.222;2024-02-15T07:17:27;10.05;;;3.50;;
23376;SDS011;14353;46.070;13.222;2024-02-15T07:19:53;8.40;;;3.38;;
23376;SDS011;14353;46.070;13.222;2024-02-15T07:22:19;11.25;;;3.90;;
23376;SDS011;14353;46.070;13.222;2024-02-15T07:24:44;9.48;;;3.67;;
23376;SDS011;14353;46.070;13.222;2024-02-15T07:27:10;9.35;;;3.80;;
23376;SDS011;14353;46.070;13.222;2024-02-15T07:29:36;7.82;;;3.40;;
23376;SDS011;14353;46.070;13.222;2024-02-15T07:32:05;6.93;;;3.38;;
23376;SDS011;14353;46.070;13.222;2024-02-15T07:34:31;7.60;;;3.72;;
23376;SDS011;14353;46.070;13.222;2024-02-15T07:37:02;8.60;;;3.50;;
23376;SDS011;14353;46.070;13.222;2024-02-15T07:39:28;6.95;;;3.65;;
23376;SDS011;14353;46.070;13.222;2024-02-15T07:41:54;8.88;;;3.67;;
23376;SDS011;14353;46.070;13.222;2024-02-15T07:44:20;7.97;;;3.53;;
23376;SDS011;14353;46.070;13.222;2024-02-15T07:46:47;5.20;;;3.20;;
23376;SDS011;14353;46.070;13.222;2024-02-15T07:49:12;9.20;;;3.55;;
23376;SDS011;14353;46.070;13.222;2024-02-15T07:51:38;6.18;;;3.50;;
23376;SDS011;14353;46.070;13.222;2024-02-15T07:54:04;7.75;;;3.40;;
23376;SDS011;14353;46.070;13.222;2024-02-15T07:56:31;8.13;;;3.60;;
23376;SDS011;14353;46.070;13.222;2024-02-15T07:58:57;8.82;;;3.10;;
23376;SDS011;14353;46.070;13.222;2024-02-15T08:01:22;18.90;;;11.00;;
23376;SDS011;14353;46.070;13.222;2024-02-15T08:03:48;22.40;;;11.57;;
23376;SDS011;14353;46.070;13.222;2024-02-15T08:06:14;22.60;;;12.25;;
23376;SDS011;14353;46.070;13.222;2024-02-15T08:08:42;23.02;;;12.05;;
23376;SDS011;14353;46.070;13.222;2024-02-15T08:11:11;18.33;;;6.20;;
23376;SDS011;14353;46.070;13.222;2024-02-15T08:13:40;13.00;;;5.20;;
23376;SDS011;14353;46.070;13.222;2024-02-15T08:16:19;11.23;;;4.60;;
23376;SDS011;14353;46.070;13.222;2024-02-15T08:18:49;11.25;;;4.80;;
23376;SDS011;14353;46.070;13.222;2024-02-15T08:21:32;10.45;;;4.43;;
23376;SDS011;14353;46.070;13.222;2024-02-15T08:24:01;13.00;;;4.93;;
23376;SDS011;14353;46.070;13.222;2024-02-15T08:26:33;10.57;;;5.10;;
23376;SDS011;14353;46.070;13.222;2024-02-15T08:29:03;12.77;;;4.72;;
23376;SDS011;14353;46.070;13.222;2024-02-15T08:31:29;13.02;;;5.00;;
23376;SDS011;14353;46.070;13.222;2024-02-15T08:34:01;10.55;;;4.95;;
23376;SDS011;14353;46.070;13.222;2024-02-15T08:36:27;12.32;;;4.88;;
23376;SDS011;14353;46.070;13.222;2024-02-15T08:38:55;10.68;;;4.57;;
23376;SDS011;14353;46.070;13.222;2024-02-15T08:41:21;13.90;;;4.93;;
23376;SDS011;14353;46.070;13.222;2024-02-15T08:43:51;12.13;;;5.10;;
23376;SDS011;14353;46.070;13.222;2024-02-15T08:46:17;12.00;;;4.80;;
23376;SDS011;14353;46.070;13.222;2024-02-15T08:48:44;12.00;;;5.70;;
23376;SDS011;14353;46.070;13.222;2024-02-15T08:51:11;14.32;;;5.43;;
23376;SDS011;14353;46.070;13.222;2024-02-15T08:53:37;9.82;;;4.90;;
23376;SDS011;14353;46.070;13.222;2024-02-15T08:56:06;13.82;;;8.23;;
23376;SDS011;14353;46.070;13.222;2024-02-15T08:58:34;12.93;;;7.38;;
23376;SDS011;14353;46.070;13.222;2024-02-15T09:01:00;19.15;;;6.65;;
23376;SDS011;14353;46.070;13.222;2024-02-15T09:03:28;16.92;;;6.28;;
23376;SDS011;14353;46.070;13.222;2024-02-15T09:05:54;18.50;;;5.50;;
23376;SDS011;14353;46.070;13.222;2024-02-15T09:08:19;21.38;;;5.82;;
23376;SDS011;14353;46.070;13.222;2024-02-15T09:10:49;13.25;;;5.15;;
23376;SDS011;14353;46.070;13.222;2024-02-15T09:13:19;14.32;;;5.10;;
23376;SDS011;14353;46.070;13.222;2024-02-15T09:15:45;15.88;;;6.00;;
23376;SDS011;14353;46.070;13.222;2024-02-15T09:18:12;14.05;;;5.85;;
23376;SDS011;14353;46.070;13.222;2024-02-15T09:20:38;12.60;;;5.00;;
23376;SDS011;14353;46.070;13.222;2024-02-15T09:23:09;15.20;;;7.75;;
23376;SDS011;14353;46.070;13.222;2024-02-15T09:25:40;13.25;;;5.97;;
23376;SDS011;14353;46.070;13.222;2024-02-15T09:28:09;11.15;;;5.68;;
23376;SDS011;14353;46.070;13.222;2024-02-15T09:30:35;10.98;;;4.80;;
23376;SDS011;14353;46.070;13.222;2024-02-15T09:33:01;8.43;;;4.65;;
23376;SDS011;14353;46.070;13.222;2024-02-15T09:35:30;11.77;;;4.72;;
23376;SDS011;14353;46.070;13.222;2024-02-15T09:37:56;11.32;;;4.35;;
23376;SDS011;14353;46.070;13.222;2024-02-15T09:40:22;12.48;;;4.53;;
23376;SDS011;14353;46.070;13.222;2024-02-15T09:42:51;12.35;;;4.55;;
23376;SDS011;14353;46.070;13.222;2024-02-15T09:45:18;16.80;;;10.23;;
23376;SDS011;14353;46.070;13.222;2024-02-15T09:47:45;11.02;;;4.30;;
23376;SDS011;14353;46.070;13.222;2024-02-15T09:50:15;9.13;;;4.10;;
23376;SDS011;14353;46.070;13.222;2024-02-15T09:52:51;8.48;;;5.50;;
23376;SDS011;14353;46.070;13.222;2024-02-15T09:55:21;9.82;;;4.30;;
23376;SDS011;14353;46.070;13.222;2024-02-15T09:57:48;10.70;;;6.85;;
23376;SDS011;14353;46.070;13.222;2024-02-15T10:00:15;14.63;;;9.57;;
23376;SDS011;14353;46.070;13.222;2024-02-15T10:02:46;11.55;;;7.00;;
23376;SDS011;14353;46.070;13.222;2024-02-15T10:05:13;14.30;;;8.23;;
23376;SDS011;14353;46.070;13.222;2024-02-15T10:07:39;12.98;;;7.70;;
23376;SDS011;14353;46.070;13.222;2024-02-15T10:10:18;21.50;;;7.13;;
23376;SDS011;14353;46.070;13.222;2024-02-15T10:12:46;17.17;;;7.78;;
23376;SDS011;14353;46.070;13.222;2024-02-15T10:18:13;15.30;;;6.47;;
23376;SDS011;14353;46.070;13.222;2024-02-15T10:20:39;17.80;;;5.85;;
23376;SDS011;14353;46.070;13.222;2024-02-15T10:23:13;18.35;;;6.45;;
23376;SDS011;14353;46.070;13.222;2024-02-15T10:25:42;13.38;;;4.60;;
23376;SDS011;14353;46.070;13.222;2024-02-15T10:28:09;17.15;;;5.30;;
23376;SDS011;14353;46.070;13.222;2024-02-15T10:30:40;12.68;;;4.78;;
23376;SDS011;14353;46.070;13.222;2024-02-15T10:33:17;13.05;;;7.28;;
23376;SDS011;14353;46.070;13.222;2024-02-15T10:36:05;11.43;;;5.85;;
23376;SDS011;14353;46.070;13.222;2024-02-15T10:38:34;13.25;;;5.20;;
23376;SDS011;14353;46.070;13.222;2024-02-15T10:41:04;12.48;;;5.90;;
23376;SDS011;14353;46.070;13.222;2024-02-15T10:43:31;10.75;;;5.30;;
23376;SDS011;14353;46.070;13.222;2024-02-15T10:45:58;15.88;;;4.55;;
23376;SDS011;14353;46.070;13.222;2024-02-15T10:48:26;25.27;;;5.53;;
23376;SDS011;14353;46.070;13.222;2024-02-15T10:50:59;30.50;;;4.95;;
23376;SDS011;14353;46.070;13.222;2024-02-15T10:53:27;22.23;;;6.35;;
23376;SDS011;14353;46.070;13.222;2024-02-15T10:58:32;20.63;;;4.50;;
23376;SDS011;14353;46.070;13.222;2024-02-15T11:01:03;15.32;;;9.40;;
23376;SDS011;14353;46.070;13.222;2024-02-15T11:03:35;17.33;;;4.90;;
23376;SDS011;14353;46.070;13.222;2024-02-15T11:06:06;16.17;;;6.95;;
23376;SDS011;14353;46.070;13.222;2024-02-15T11:08:34;16.23;;;8.38;;
23376;SDS011;14353;46.070;13.222;2024-02-15T11:11:02;14.32;;;7.97;;
23376;SDS011;14353;46.070;13.222;2024-02-15T11:13:30;15.32;;;9.77;;
23376;SDS011;14353;46.070;13.222;2024-02-15T11:15:55;17.15;;;8.57;;
23376;SDS011;14353;46.070;13.222;2024-02-15T11:24:27;16.13;;;7.35;;
23376;SDS011;14353;46.070;13.222;2024-02-15T11:26:57;12.20;;;5.72;;
23376;SDS011;14353;46.070;13.222;2024-02-15T11:35:09;17.65;;;5.90;;
23376;SDS011;14353;46.070;13.222;2024-02-15T11:40:23;14.18;;;9.30;;
23376;SDS011;14353;46.070;13.222;2024-02-15T11:45:24;14.50;;;10.45;;
23376;SDS011;14353;46.070;13.222;2024-02-15T11:47:52;11.38;;;7.93;;
23376;SDS011;14353;46.070;13.222;2024-02-15T11:50:19;15.20;;;9.43;;
23376;SDS011;14353;46.070;13.222;2024-02-15T11:52:47;12.30;;;8.07;;
23376;SDS011;14353;46.070;13.222;2024-02-15T11:55:14;11.73;;;6.93;;
23376;SDS011;14353;46.070;13.222;2024-02-15T11:57:55;14.07;;;7.55;;
23376;SDS011;14353;46.070;13.222;2024-02-15T12:00:46;15.23;;;9.80;;
23376;SDS011;14353;46.070;13.222;2024-02-15T12:03:44;18.02;;;13.15;;
23376;SDS011;14353;46.070;13.222;2024-02-15T12:06:28;17.38;;;13.65;;
23376;SDS011;14353;46.070;13.222;2024-02-15T12:09:12;20.15;;;13.80;;
23376;SDS011;14353;46.070;13.222;2024-02-15T12:12:02;14.77;;;9.70;;
23376;SDS011;14353;46.070;13.222;2024-02-15T12:14:46;14.00;;;9.65;;
23376;SDS011;14353;46.070;13.222;2024-02-15T12:17:31;13.25;;;10.48;;
23376;SDS011;14353;46.070;13.222;2024-02-15T12:20:15;15.07;;;10.23;;
23376;SDS011;14353;46.070;13.222;2024-02-15T12:22:51;22.52;;;15.68;;
23376;SDS011;14353;46.070;13.222;2024-02-15T12:25:17;18.38;;;13.77;;
23376;SDS011;14353;46.070;13.222;2024-02-15T12:27:46;21.92;;;14.55;;
23376;SDS011;14353;46.070;13.222;2024-02-15T12:30:17;19.67;;;14.43;;
23376;SDS011;14353;46.070;13.222;2024-02-15T12:32:48;23.00;;;16.73;;
23376;SDS011;14353;46.070;13.222;2024-02-15T12:35:15;24.08;;;17.52;;
23376;SDS011;14353;46.070;13.222;2024-02-15T12:38:09;20.77;;;15.35;;
23376;SDS011;14353;46.070;13.222;2024-02-15T12:40:38;20.38;;;14.27;;
23376;SDS011;14353;46.070;13.222;2024-02-15T12:43:05;19.88;;;13.25;;
23376;SDS011;14353;46.070;13.222;2024-02-15T12:45:37;20.23;;;12.98;;
23376;SDS011;14353;46.070;13.222;2024-02-15T12:48:05;15.88;;;10.02;;
23376;SDS011;14353;46.070;13.222;2024-02-15T12:50:31;18.65;;;12.32;;
23376;SDS011;14353;46.070;13.222;2024-02-15T12:52:58;12.27;;;8.55;;
23376;SDS011;14353;46.070;13.222;2024-02-15T12:57:59;23.40;;;15.65;;
23376;SDS011;14353;46.070;13.222;2024-02-15T13:00:29;20.67;;;14.10;;
23376;SDS011;14353;46.070;13.222;2024-02-15T13:03:03;18.48;;;13.73;;
23376;SDS011;14353;46.070;13.222;2024-02-15T13:05:30;17.75;;;11.73;;
23376;SDS011;14353;46.070;13.222;2024-02-15T13:07:56;17.92;;;11.82;;
23376;SDS011;14353;46.070;13.222;2024-02-15T13:10:23;14.75;;;8.30;;
23376;SDS011;14353;46.070;13.222;2024-02-15T13:12:51;22.88;;;16.45;;
23376;SDS011;14353;46.070;13.222;2024-02-15T13:15:18;23.40;;;15.35;;
23376;SDS011;14353;46.070;13.222;2024-02-15T13:17:49;23.10;;;17.48;;
23376;SDS011;14353;46.070;13.222;2024-02-15T13:20:19;25.65;;;17.20;;
23376;SDS011;14353;46.070;13.222;2024-02-15T13:22:52;23.77;;;17.08;;
23376;SDS011;14353;46.070;13.222;2024-02-15T13:25:18;18.38;;;12.95;;
23376;SDS011;14353;46.070;13.222;2024-02-15T13:27:46;18.17;;;12.68;;
23376;SDS011;14353;46.070;13.222;2024-02-15T13:30:12;21.88;;;16.48;;
23376;SDS011;14353;46.070;13.222;2024-02-15T13:32:39;19.75;;;15.10;;
23376;SDS011;14353;46.070;13.222;2024-02-15T13:35:08;18.15;;;12.20;;
23376;SDS011;14353;46.070;13.222;2024-02-15T13:37:47;15.15;;;10.00;;
23376;SDS011;14353;46.070;13.222;2024-02-15T13:40:19;18.52;;;12.07;;
23376;SDS011;14353;46.070;13.222;2024-02-15T13:42:48;16.75;;;11.35;;
23376;SDS011;14353;46.070;13.222;2024-02-15T13:45:21;11.65;;;8.18;;
23376;SDS011;14353;46.070;13.222;2024-02-15T13:47:48;18.42;;;12.27;;
23376;SDS011;14353;46.070;13.222;2024-02-15T13:50:15;19.42;;;14.25;;
23376;SDS011;14353;46.070;13.222;2024-02-15T13:52:45;16.02;;;11.80;;
23376;SDS011;14353;46.070;13.222;2024-02-15T13:55:11;23.60;;;14.98;;
23376;SDS011;14353;46.070;13.222;2024-02-15T13:57:38;30.70;;;18.05;;
23376;SDS011;14353;46.070;13.222;2024-02-15T14:00:06;21.10;;;12.57;;
23376;SDS011;14353;46.070;13.222;2024-02-15T14:02:54;25.58;;;12.80;;
23376;SDS011;14353;46.070;13.222;2024-02-15T14:05:23;20.05;;;11.70;;
23376;SDS011;14353;46.070;13.222;2024-02-15T14:07:53;24.83;;;16.13;;
23376;SDS011;14353;46.070;13.222;2024-02-15T14:10:21;21.08;;;11.55;;
23376;SDS011;14353;46.070;13.222;2024-02-15T14:12:47;22.45;;;13.65;;
23376;SDS011;14353;46.070;13.222;2024-02-15T14:15:16;19.60;;;12.43;;
23376;SDS011;14353;46.070;13.222;2024-02-15T14:17:42;23.77;;;15.82;;
23376;SDS011;14353;46.070;13.222;2024-02-15T14:20:11;19.10;;;11.43;;
23376;SDS011;14353;46.070;13.222;2024-02-15T14:22:44;23.05;;;14.90;;
23376;SDS011;14353;46.070;13.222;2024-02-15T14:25:25;18.50;;;13.80;;
23376;SDS011;14353;46.070;13.222;2024-02-15T14:27:51;25.38;;;15.77;;
23376;SDS011;14353;46.070;13.222;2024-02-15T14:30:19;24.90;;;16.88;;
23376;SDS011;14353;46.070;13.222;2024-02-15T14:33:03;21.10;;;14.93;;
23376;SDS011;14353;46.070;13.222;2024-02-15T14:35:30;27.85;;;16.00;;
23376;SDS011;14353;46.070;13.222;2024-02-15T14:38:03;24.77;;;16.35;;
23376;SDS011;14353;46.070;13.222;2024-02-15T14:40:37;22.77;;;15.30;;
23376;SDS011;14353;46.070;13.222;2024-02-15T14:43:04;25.05;;;17.65;;
23376;SDS011;14353;46.070;13.222;2024-02-15T14:45:33;23.90;;;17.10;;
23376;SDS011;14353;46.070;13.222;2024-02-15T14:48:01;19.48;;;13.70;;
23376;SDS011;14353;46.070;13.222;2024-02-15T14:50:28;23.40;;;16.65;;
23376;SDS011;14353;46.070;13.222;2024-02-15T14:52:54;26.75;;;17.50;;
23376;SDS011;14353;46.070;13.222;2024-02-15T14:55:20;22.13;;;15.73;;
23376;SDS011;14353;46.070;13.222;2024-02-15T14:57:46;28.15;;;18.30;;
23376;SDS011;14353;46.070;13.222;2024-02-15T15:00:12;27.67;;;19.33;;
23376;SDS011;14353;46.070;13.222;2024-02-15T15:02:49;28.80;;;19.50;;